sensor_id;sensor_type;location;lat;lon;timestamp;pressure;altitude;pressure_sealevel;temperature;humidity
31717;BME280;18301;51.076;17.046;2023-07-16T00:00:05;99575.38;;;23.46;68.99
31717;BME280;18301;51.076;17.046;2023-07-16T00:05:09;99568.44;;;23.37;68.66
31717;BME280;18301;51.076;17.046;2023-07-16T00:10:11;99567.78;;;23.35;68.79
31717;BME280;18301;51.076;17.046;2023-07-16T00:15:12;99557.84;;;23.34;67.86
31717;BME280;18301;51.076;17.046;2023-07-16T00:20:14;99569.47;;;23.36;67.83
31717;BME280;18301;51.076;17.046;2023-07-16T00:25:15;99558.44;;;23.36;67.98
31717;BME280;18301;51.076;17.046;2023-07-16T00:30:17;99559.34;;;23.23;68.11
31717;BME280;18301;51.076;17.046;2023-07-16T00:35:19;99565.47;;;23.32;68.32
31717;BME280;18301;51.076;17.046;2023-07-16T00:40:20;99545.81;;;23.22;68.92
31717;BME280;18301;51.076;17.046;2023-07-16T00:45:22;99557.25;;;23.18;68.99
31717;BME280;18301;51.076;17.046;2023-07-16T00:50:23;99556.81;;;23.22;69.17
31717;BME280;18301;51.076;17.046;2023-07-16T00:55:25;99562.97;;;23.17;69.01
31717;BME280;18301;51.076;17.046;2023-07-16T01:00:27;99555.16;;;23.07;70.80
31717;BME280;18301;51.076;17.046;2023-07-16T01:05:34;99562.78;;;23.05;72.43
31717;BME280;18301;51.076;17.046;2023-07-16T01:10:38;99553.91;;;23.03;71.28
31717;BME280;18301;51.076;17.046;2023-07-16T01:15:40;99550.50;;;23.01;70.88
31717;BME280;18301;51.076;17.046;2023-07-16T01:20:42;99533.78;;;22.83;72.96
31717;BME280;18301;51.076;17.046;2023-07-16T01:26:05;99536.16;;;22.72;72.46
31717;BME280;18301;51.076;17.046;2023-07-16T01:31:10;99535.53;;;22.57;74.91
31717;BME280;18301;51.076;17.046;2023-07-16T01:36:12;99529.81;;;22.52;73.37
31717;BME280;18301;51.076;17.046;2023-07-16T01:41:14;99528.97;;;22.45;76.54
31717;BME280;18301;51.076;17.046;2023-07-16T01:46:17;99532.75;;;22.31;77.12
31717;BME280;18301;51.076;17.046;2023-07-16T01:51:19;99528.75;;;22.26;74.79
31717;BME280;18301;51.076;17.046;2023-07-16T01:56:21;99519.88;;;22.18;75.81
31717;BME280;18301;51.076;17.046;2023-07-16T02:01:23;99521.31;;;22.14;76.85
31717;BME280;18301;51.076;17.046;2023-07-16T02:06:24;99511.81;;;22.16;76.32
31717;BME280;18301;51.076;17.046;2023-07-16T02:11:26;99514.97;;;22.13;78.33
31717;BME280;18301;51.076;17.046;2023-07-16T02:16:27;99528.09;;;22.24;75.78
31717;BME280;18301;51.076;17.046;2023-07-16T02:21:29;99529.38;;;22.28;74.94
31717;BME280;18301;51.076;17.046;2023-07-16T02:26:30;99531.94;;;22.30;75.70
31717;BME280;18301;51.076;17.046;2023-07-16T02:31:32;99546.31;;;22.39;76.88
31717;BME280;18301;51.076;17.046;2023-07-16T02:36:33;99559.00;;;22.26;75.55
31717;BME280;18301;51.076;17.046;2023-07-16T02:41:35;99573.56;;;22.20;75.66
31717;BME280;18301;51.076;17.046;2023-07-16T02:46:36;99583.50;;;22.21;76.03
31717;BME280;18301;51.076;17.046;2023-07-16T02:51:38;99572.31;;;22.29;76.63
31717;BME280;18301;51.076;17.046;2023-07-16T02:56:40;99566.59;;;22.24;77.50
31717;BME280;18301;51.076;17.046;2023-07-16T03:01:41;99581.41;;;22.23;77.13
31717;BME280;18301;51.076;17.046;2023-07-16T03:06:43;99602.13;;;22.33;75.72
31717;BME280;18301;51.076;17.046;2023-07-16T03:11:44;99593.66;;;22.41;75.90
31717;BME280;18301;51.076;17.046;2023-07-16T03:16:46;99596.22;;;22.42;77.03
31717;BME280;18301;51.076;17.046;2023-07-16T03:21:47;99604.47;;;22.36;76.25
31717;BME280;18301;51.076;17.046;2023-07-16T03:26:51;99609.72;;;22.31;78.62
31717;BME280;18301;51.076;17.046;2023-07-16T03:32:02;99632.53;;;22.24;78.50
31717;BME280;18301;51.076;17.046;2023-07-16T03:37:03;99688.38;;;22.32;78.94
31717;BME280;18301;51.076;17.046;2023-07-16T03:42:05;99750.00;;;22.57;77.92
31717;BME280;18301;51.076;17.046;2023-07-16T03:47:06;99752.38;;;22.93;76.71
31717;BME280;18301;51.076;17.046;2023-07-16T03:52:08;99749.06;;;23.11;76.07
31717;BME280;18301;51.076;17.046;2023-07-16T03:57:09;99767.06;;;23.20;76.59
31717;BME280;18301;51.076;17.046;2023-07-16T04:02:11;99778.94;;;23.41;76.59
31717;BME280;18301;51.076;17.046;2023-07-16T04:07:12;99773.19;;;23.76;74.72
31717;BME280;18301;51.076;17.046;2023-07-16T04:12:14;99788.41;;;23.98;74.47
31717;BME280;18301;51.076;17.046;2023-07-16T04:17:16;99775.56;;;24.37;73.34
31717;BME280;18301;51.076;17.046;2023-07-16T04:22:17;99793.94;;;24.56;72.17
31717;BME280;18301;51.076;17.046;2023-07-16T04:27:19;99820.78;;;24.81;70.40
31717;BME280;18301;51.076;17.046;2023-07-16T04:32:21;99834.34;;;24.89;68.81
31717;BME280;18301;51.076;17.046;2023-07-16T04:37:22;99845.13;;;24.97;67.90
31717;BME280;18301;51.076;17.046;2023-07-16T04:42:24;99841.03;;;25.07;67.80
31717;BME280;18301;51.076;17.046;2023-07-16T04:47:26;99850.94;;;25.21;67.66
31717;BME280;18301;51.076;17.046;2023-07-16T04:52:27;99847.69;;;25.37;66.34
31717;BME280;18301;51.076;17.046;2023-07-16T04:57:29;99858.72;;;25.37;66.88
31717;BME280;18301;51.076;17.046;2023-07-16T05:02:30;99874.19;;;25.70;66.58
31717;BME280;18301;51.076;17.046;2023-07-16T05:07:32;99877.22;;;25.93;64.59
31717;BME280;18301;51.076;17.046;2023-07-16T05:12:33;99880.22;;;26.10;65.37
31717;BME280;18301;51.076;17.046;2023-07-16T05:17:35;99888.56;;;26.29;64.28
31717;BME280;18301;51.076;17.046;2023-07-16T05:22:36;99900.59;;;26.59;63.59
31717;BME280;18301;51.076;17.046;2023-07-16T05:27:38;99911.19;;;26.62;61.91
31717;BME280;18301;51.076;17.046;2023-07-16T05:32:40;99919.41;;;26.88;62.17
31717;BME280;18301;51.076;17.046;2023-07-16T05:37:42;99922.06;;;26.82;60.75
31717;BME280;18301;51.076;17.046;2023-07-16T05:42:43;99915.41;;;27.02;60.75
31717;BME280;18301;51.076;17.046;2023-07-16T05:47:45;99918.66;;;27.17;60.59
31717;BME280;18301;51.076;17.046;2023-07-16T05:52:46;99921.03;;;26.95;60.05
31717;BME280;18301;51.076;17.046;2023-07-16T05:57:50;99912.44;;;27.34;59.01
31717;BME280;18301;51.076;17.046;2023-07-16T06:02:52;99939.31;;;27.63;57.81
31717;BME280;18301;51.076;17.046;2023-07-16T06:07:53;99943.09;;;27.39;58.11
31717;BME280;18301;51.076;17.046;2023-07-16T06:12:55;99959.53;;;27.22;58.10
31717;BME280;18301;51.076;17.046;2023-07-16T06:17:56;99969.72;;;27.21;58.53
31717;BME280;18301;51.076;17.046;2023-07-16T06:22:58;99974.97;;;27.29;57.79
31717;BME280;18301;51.076;17.046;2023-07-16T06:27:59;99973.75;;;27.55;57.69
31717;BME280;18301;51.076;17.046;2023-07-16T06:33:01;99988.50;;;27.38;58.32
31717;BME280;18301;51.076;17.046;2023-07-16T06:38:02;99998.31;;;27.22;57.78
31717;BME280;18301;51.076;17.046;2023-07-16T06:43:04;99997.56;;;27.08;58.57
31717;BME280;18301;51.076;17.046;2023-07-16T06:48:05;100005.97;;;26.83;58.35
31717;BME280;18301;51.076;17.046;2023-07-16T06:53:07;100017.25;;;27.00;58.17
31717;BME280;18301;51.076;17.046;2023-07-16T06:58:13;100013.28;;;27.14;57.60
31717;BME280;18301;51.076;17.046;2023-07-16T07:03:15;100032.38;;;27.22;57.04
31717;BME280;18301;51.076;17.046;2023-07-16T07:08:16;100032.66;;;26.96;56.88
31717;BME280;18301;51.076;17.046;2023-07-16T07:13:18;100029.66;;;26.97;57.09
31717;BME280;18301;51.076;17.046;2023-07-16T07:18:19;100026.50;;;27.12;57.03
31717;BME280;18301;51.076;17.046;2023-07-16T07:23:21;100019.44;;;26.98;57.46
31717;BME280;18301;51.076;17.046;2023-07-16T07:28:23;100023.06;;;27.17;57.87
31717;BME280;18301;51.076;17.046;2023-07-16T07:33:24;100026.06;;;27.34;56.84
31717;BME280;18301;51.076;17.046;2023-07-16T07:38:26;100029.50;;;27.47;57.11
31717;BME280;18301;51.076;17.046;2023-07-16T07:43:27;100017.59;;;27.47;57.37
31717;BME280;18301;51.076;17.046;2023-07-16T07:48:29;100019.03;;;27.49;55.16
31717;BME280;18301;51.076;17.046;2023-07-16T07:53:31;100019.28;;;27.48;56.26
31717;BME280;18301;51.076;17.046;2023-07-16T07:58:33;100020.97;;;28.09;55.09
31717;BME280;18301;51.076;17.046;2023-07-16T08:03:34;100000.03;;;28.37;53.81
31717;BME280;18301;51.076;17.046;2023-07-16T08:08:36;99989.03;;;28.30;54.44
31717;BME280;18301;51.076;17.046;2023-07-16T08:13:38;99982.31;;;28.50;53.41
31717;BME280;18301;51.076;17.046;2023-07-16T08:18:39;99984.81;;;28.98;53.23
31717;BME280;18301;51.076;17.046;2023-07-16T08:23:41;99984.81;;;28.98;52.25
31717;BME280;18301;51.076;17.046;2023-07-16T08:28:45;99994.00;;;29.10;53.38
31717;BME280;18301;51.076;17.046;2023-07-16T08:33:47;99987.66;;;29.27;51.49
31717;BME280;18301;51.076;17.046;2023-07-16T08:38:49;99983.56;;;29.58;50.38
31717;BME280;18301;51.076;17.046;2023-07-16T08:43:51;99970.25;;;29.60;49.13
31717;BME280;18301;51.076;17.046;2023-07-16T08:48:53;99955.00;;;29.74;51.62
31717;BME280;18301;51.076;17.046;2023-07-16T08:53:55;99956.22;;;29.67;52.73
31717;BME280;18301;51.076;17.046;2023-07-16T08:58:57;99951.84;;;29.42;51.52
31717;BME280;18301;51.076;17.046;2023-07-16T09:03:59;99949.56;;;29.10;51.69
31717;BME280;18301;51.076;17.046;2023-07-16T09:09:00;99981.84;;;28.76;53.46
31717;BME280;18301;51.076;17.046;2023-07-16T09:14:02;100000.56;;;28.45;53.10
31717;BME280;18301;51.076;17.046;2023-07-16T09:19:09;99955.72;;;28.07;55.98
31717;BME280;18301;51.076;17.046;2023-07-16T09:24:12;99949.47;;;27.69;61.74
31717;BME280;18301;51.076;17.046;2023-07-16T09:29:13;99959.44;;;27.28;63.41
31717;BME280;18301;51.076;17.046;2023-07-16T09:34:15;99955.38;;;27.43;62.84
31717;BME280;18301;51.076;17.046;2023-07-16T09:39:17;99970.78;;;27.69;65.33
31717;BME280;18301;51.076;17.046;2023-07-16T09:44:22;99968.25;;;28.09;61.61
31717;BME280;18301;51.076;17.046;2023-07-16T09:49:23;99982.31;;;28.50;61.10
31717;BME280;18301;51.076;17.046;2023-07-16T09:54:25;99987.25;;;28.83;59.06
31717;BME280;18301;51.076;17.046;2023-07-16T09:59:30;100012.44;;;29.28;57.21
31717;BME280;18301;51.076;17.046;2023-07-16T10:04:39;100022.28;;;29.48;58.05
31717;BME280;18301;51.076;17.046;2023-07-16T10:09:54;100025.03;;;29.59;56.27
31717;BME280;18301;51.076;17.046;2023-07-16T10:14:57;100028.97;;;29.35;55.92
31717;BME280;18301;51.076;17.046;2023-07-16T10:25:10;100033.25;;;29.14;58.06
31717;BME280;18301;51.076;17.046;2023-07-16T10:30:12;100045.19;;;28.91;57.63
31717;BME280;18301;51.076;17.046;2023-07-16T10:35:14;100043.88;;;28.70;58.31
31717;BME280;18301;51.076;17.046;2023-07-16T10:40:17;100054.38;;;28.56;57.66
31717;BME280;18301;51.076;17.046;2023-07-16T10:45:18;100061.66;;;28.27;58.02
31717;BME280;18301;51.076;17.046;2023-07-16T10:50:20;100071.88;;;28.15;59.31
31717;BME280;18301;51.076;17.046;2023-07-16T10:55:29;100076.78;;;28.01;58.94
31717;BME280;18301;51.076;17.046;2023-07-16T11:00:38;100076.47;;;27.42;59.60
31717;BME280;18301;51.076;17.046;2023-07-16T11:05:40;100074.66;;;27.11;60.06
31717;BME280;18301;51.076;17.046;2023-07-16T11:10:41;100083.56;;;26.95;60.87
31717;BME280;18301;51.076;17.046;2023-07-16T11:15:43;100080.13;;;26.74;61.68
31717;BME280;18301;51.076;17.046;2023-07-16T11:20:45;100077.41;;;26.93;61.51
31717;BME280;18301;51.076;17.046;2023-07-16T11:25:47;100084.59;;;27.00;61.81
31717;BME280;18301;51.076;17.046;2023-07-16T11:30:49;100091.34;;;26.61;62.78
31717;BME280;18301;51.076;17.046;2023-07-16T11:35:51;100082.84;;;26.56;63.21
31717;BME280;18301;51.076;17.046;2023-07-16T11:40:54;100080.59;;;26.71;62.77
31717;BME280;18301;51.076;17.046;2023-07-16T11:45:56;100095.28;;;26.72;61.92
31717;BME280;18301;51.076;17.046;2023-07-16T11:50:57;100099.09;;;26.46;61.62
31717;BME280;18301;51.076;17.046;2023-07-16T11:55:59;100103.25;;;26.61;60.65
31717;BME280;18301;51.076;17.046;2023-07-16T12:01:00;100099.28;;;26.51;60.83
31717;BME280;18301;51.076;17.046;2023-07-16T12:06:02;100105.06;;;26.74;59.64
31717;BME280;18301;51.076;17.046;2023-07-16T12:11:03;100088.16;;;26.82;59.22
31717;BME280;18301;51.076;17.046;2023-07-16T12:16:05;100084.50;;;27.07;59.07
31717;BME280;18301;51.076;17.046;2023-07-16T12:21:07;100084.22;;;27.15;58.88
31717;BME280;18301;51.076;17.046;2023-07-16T12:26:08;100084.47;;;27.32;58.10
31717;BME280;18301;51.076;17.046;2023-07-16T12:31:10;100091.03;;;27.38;58.22
31717;BME280;18301;51.076;17.046;2023-07-16T12:36:12;100092.53;;;27.15;58.23
31717;BME280;18301;51.076;17.046;2023-07-16T12:41:15;100092.88;;;27.25;58.42
31717;BME280;18301;51.076;17.046;2023-07-16T12:46:17;100087.47;;;27.49;58.19
31717;BME280;18301;51.076;17.046;2023-07-16T12:51:19;100080.69;;;27.63;58.47
31717;BME280;18301;51.076;17.046;2023-07-16T12:56:21;100083.28;;;27.58;58.95
31717;BME280;18301;51.076;17.046;2023-07-16T13:01:22;100079.28;;;27.72;58.47
31717;BME280;18301;51.076;17.046;2023-07-16T13:06:24;100083.25;;;27.76;58.57
31717;BME280;18301;51.076;17.046;2023-07-16T13:11:26;100080.91;;;27.62;58.98
31717;BME280;18301;51.076;17.046;2023-07-16T13:16:27;100096.22;;;27.64;58.47
31717;BME280;18301;51.076;17.046;2023-07-16T13:21:29;100100.38;;;27.73;58.85
31717;BME280;18301;51.076;17.046;2023-07-16T13:26:30;100103.34;;;27.79;58.47
31717;BME280;18301;51.076;17.046;2023-07-16T13:31:32;100095.94;;;27.54;60.07
31717;BME280;18301;51.076;17.046;2023-07-16T13:36:33;100103.47;;;27.65;59.59
31717;BME280;18301;51.076;17.046;2023-07-16T13:41:35;100114.25;;;27.92;59.25
31717;BME280;18301;51.076;17.046;2023-07-16T13:46:37;100108.53;;;28.05;58.33
31717;BME280;18301;51.076;17.046;2023-07-16T13:51:39;100116.09;;;28.40;57.62
31717;BME280;18301;51.076;17.046;2023-07-16T13:56:41;100120.13;;;28.44;57.38
31717;BME280;18301;51.076;17.046;2023-07-16T14:01:43;100119.31;;;28.55;57.36
31717;BME280;18301;51.076;17.046;2023-07-16T14:06:45;100107.00;;;28.51;57.48
31717;BME280;18301;51.076;17.046;2023-07-16T14:11:47;100110.47;;;28.16;58.33
31717;BME280;18301;51.076;17.046;2023-07-16T14:16:49;100112.31;;;27.92;59.58
31717;BME280;18301;51.076;17.046;2023-07-16T14:21:51;100113.63;;;27.71;60.12
31717;BME280;18301;51.076;17.046;2023-07-16T14:26:52;100103.34;;;27.79;59.88
31717;BME280;18301;51.076;17.046;2023-07-16T14:31:54;100098.22;;;27.75;59.40
31717;BME280;18301;51.076;17.046;2023-07-16T14:36:56;100103.16;;;27.55;60.72
31717;BME280;18301;51.076;17.046;2023-07-16T14:41:57;100101.19;;;27.44;60.98
31717;BME280;18301;51.076;17.046;2023-07-16T14:47:01;100089.16;;;27.50;60.61
31717;BME280;18301;51.076;17.046;2023-07-16T14:52:03;100089.94;;;27.39;60.80
31717;BME280;18301;51.076;17.046;2023-07-16T14:57:04;100090.69;;;27.46;60.85
31717;BME280;18301;51.076;17.046;2023-07-16T15:02:06;100078.69;;;27.52;61.76
31717;BME280;18301;51.076;17.046;2023-07-16T15:07:08;100070.78;;;27.37;60.93
31717;BME280;18301;51.076;17.046;2023-07-16T15:12:10;100059.06;;;27.35;61.95
31717;BME280;18301;51.076;17.046;2023-07-16T15:17:11;100064.63;;;27.35;61.91
31717;BME280;18301;51.076;17.046;2023-07-16T15:22:13;100072.31;;;27.33;62.67
31717;BME280;18301;51.076;17.046;2023-07-16T15:27:17;100066.69;;;27.40;62.01
31717;BME280;18301;51.076;17.046;2023-07-16T15:32:19;100069.16;;;27.48;61.79
31717;BME280;18301;51.076;17.046;2023-07-16T15:37:21;100069.91;;;27.55;61.69
31717;BME280;18301;51.076;17.046;2023-07-16T15:42:22;100059.75;;;27.49;61.32
31717;BME280;18301;51.076;17.046;2023-07-16T15:47:24;100054.19;;;27.49;61.44
31717;BME280;18301;51.076;17.046;2023-07-16T15:52:26;100047.09;;;27.71;60.95
31717;BME280;18301;51.076;17.046;2023-07-16T15:57:28;100046.72;;;27.98;60.37
31717;BME280;18301;51.076;17.046;2023-07-16T16:02:29;100047.13;;;28.13;61.28
31717;BME280;18301;51.076;17.046;2023-07-16T16:07:31;100055.19;;;28.03;60.15
31717;BME280;18301;51.076;17.046;2023-07-16T16:12:33;100049.91;;;28.13;60.94
31717;BME280;18301;51.076;17.046;2023-07-16T16:17:35;100049.72;;;28.27;60.35
31717;BME280;18301;51.076;17.046;2023-07-16T16:22:37;100034.97;;;28.26;59.90
31717;BME280;18301;51.076;17.046;2023-07-16T16:27:44;100054.81;;;28.30;60.10
31717;BME280;18301;51.076;17.046;2023-07-16T16:32:45;100045.38;;;28.31;58.89
31717;BME280;18301;51.076;17.046;2023-07-16T16:37:48;100039.63;;;28.44;58.33
31717;BME280;18301;51.076;17.046;2023-07-16T16:42:50;100048.00;;;28.26;58.47
31717;BME280;18301;51.076;17.046;2023-07-16T16:47:51;100045.84;;;27.86;56.91
31717;BME280;18301;51.076;17.046;2023-07-16T16:52:53;100059.25;;;27.70;56.99
31717;BME280;18301;51.076;17.046;2023-07-16T16:57:59;100060.81;;;27.66;57.47
31717;BME280;18301;51.076;17.046;2023-07-16T17:03:01;100066.06;;;27.56;58.29
31717;BME280;18301;51.076;17.046;2023-07-16T17:08:03;100067.75;;;27.57;58.00
31717;BME280;18301;51.076;17.046;2023-07-16T17:13:04;100060.13;;;27.52;58.38
31717;BME280;18301;51.076;17.046;2023-07-16T17:18:06;100069.16;;;27.48;58.51
31717;BME280;18301;51.076;17.046;2023-07-16T17:23:10;100070.84;;;27.30;58.19
31717;BME280;18301;51.076;17.046;2023-07-16T17:28:12;100073.56;;;27.37;58.19
31717;BME280;18301;51.076;17.046;2023-07-16T17:33:14;100079.94;;;27.38;58.14
31717;BME280;18301;51.076;17.046;2023-07-16T17:38:15;100080.69;;;27.45;57.65
31717;BME280;18301;51.076;17.046;2023-07-16T17:43:17;100092.53;;;27.34;58.40
31717;BME280;18301;51.076;17.046;2023-07-16T17:48:18;100086.53;;;27.18;58.49
31717;BME280;18301;51.076;17.046;2023-07-16T17:53:20;100098.50;;;27.12;58.83
31717;BME280;18301;51.076;17.046;2023-07-16T17:58:22;100084.66;;;27.12;58.03
31717;BME280;18301;51.076;17.046;2023-07-16T18:03:23;100089.44;;;27.05;58.12
31717;BME280;18301;51.076;17.046;2023-07-16T18:08:25;100096.06;;;27.04;58.03
31717;BME280;18301;51.076;17.046;2023-07-16T18:13:28;100089.50;;;26.98;57.79
31717;BME280;18301;51.076;17.046;2023-07-16T18:18:30;100094.47;;;26.90;57.17
31717;BME280;18301;51.076;17.046;2023-07-16T18:23:33;100098.41;;;26.82;57.24
31717;BME280;18301;51.076;17.046;2023-07-16T18:28:35;100098.44;;;26.75;56.77
31717;BME280;18301;51.076;17.046;2023-07-16T18:33:36;100091.28;;;26.68;56.52
31717;BME280;18301;51.076;17.046;2023-07-16T18:38:38;100091.34;;;26.61;56.44
31717;BME280;18301;51.076;17.046;2023-07-16T18:43:40;100092.91;;;26.50;56.22
31717;BME280;18301;51.076;17.046;2023-07-16T18:48:42;100097.44;;;26.38;55.97
31717;BME280;18301;51.076;17.046;2023-07-16T18:53:43;100103.06;;;26.25;56.32
31717;BME280;18301;51.076;17.046;2023-07-16T18:58:45;100114.19;;;26.18;56.05
31717;BME280;18301;51.076;17.046;2023-07-16T19:03:46;100126.53;;;26.15;55.91
31717;BME280;18301;51.076;17.046;2023-07-16T19:08:48;100120.38;;;26.13;56.43
31717;BME280;18301;51.076;17.046;2023-07-16T19:13:49;100117.66;;;26.07;56.31
31717;BME280;18301;51.076;17.046;2023-07-16T19:18:51;100126.81;;;26.01;56.51
31717;BME280;18301;51.076;17.046;2023-07-16T19:23:52;100122.63;;;25.91;56.97
31717;BME280;18301;51.076;17.046;2023-07-16T19:28:56;100122.25;;;25.81;57.42
31717;BME280;18301;51.076;17.046;2023-07-16T19:33:57;100137.16;;;25.67;58.12
31717;BME280;18301;51.076;17.046;2023-07-16T19:38:59;100139.75;;;25.55;58.49
31717;BME280;18301;51.076;17.046;2023-07-16T19:44:00;100130.22;;;25.44;58.73
31717;BME280;18301;51.076;17.046;2023-07-16T19:49:02;100132.59;;;25.34;60.23
31717;BME280;18301;51.076;17.046;2023-07-16T19:54:03;100132.00;;;25.19;61.21
31717;BME280;18301;51.076;17.046;2023-07-16T19:59:05;100128.16;;;25.07;61.62
31717;BME280;18301;51.076;17.046;2023-07-16T20:04:07;100123.28;;;24.95;62.20
31717;BME280;18301;51.076;17.046;2023-07-16T20:09:08;100129.03;;;24.80;62.92
31717;BME280;18301;51.076;17.046;2023-07-16T20:14:10;100136.66;;;24.72;63.30
31717;BME280;18301;51.076;17.046;2023-07-16T20:19:12;100131.81;;;24.61;63.81
31717;BME280;18301;51.076;17.046;2023-07-16T20:24:13;100140.91;;;24.54;63.85
31717;BME280;18301;51.076;17.046;2023-07-16T20:29:15;100151.97;;;24.54;64.01
31717;BME280;18301;51.076;17.046;2023-07-16T20:34:16;100149.81;;;24.56;63.86
31717;BME280;18301;51.076;17.046;2023-07-16T20:39:18;100145.38;;;24.55;63.63
31717;BME280;18301;51.076;17.046;2023-07-16T20:44:19;100147.06;;;24.56;63.18
31717;BME280;18301;51.076;17.046;2023-07-16T20:49:21;100152.38;;;24.51;63.50
31717;BME280;18301;51.076;17.046;2023-07-16T20:54:24;100161.28;;;24.47;63.18
31717;BME280;18301;51.076;17.046;2023-07-16T20:59:26;100155.31;;;24.43;63.18
31717;BME280;18301;51.076;17.046;2023-07-16T21:04:27;100154.88;;;24.40;62.49
31717;BME280;18301;51.076;17.046;2023-07-16T21:09:29;100155.47;;;24.35;62.78
31717;BME280;18301;51.076;17.046;2023-07-16T21:14:30;100154.03;;;24.32;63.00
31717;BME280;18301;51.076;17.046;2023-07-16T21:19:32;100150.16;;;24.20;63.95
31717;BME280;18301;51.076;17.046;2023-07-16T21:24:33;100152.16;;;23.85;64.14
31717;BME280;18301;51.076;17.046;2023-07-16T21:29:35;100151.72;;;23.81;63.25
31717;BME280;18301;51.076;17.046;2023-07-16T21:34:36;100151.28;;;23.78;62.55
31717;BME280;18301;51.076;17.046;2023-07-16T21:39:38;100168.78;;;23.63;62.81
31717;BME280;18301;51.076;17.046;2023-07-16T21:44:39;100158.25;;;23.74;61.98
31717;BME280;18301;51.076;17.046;2023-07-16T21:49:41;100156.00;;;23.84;61.55
31717;BME280;18301;51.076;17.046;2023-07-16T21:54:43;100136.50;;;23.92;61.42
31717;BME280;18301;51.076;17.046;2023-07-16T21:59:46;100126.78;;;23.96;61.99
31717;BME280;18301;51.076;17.046;2023-07-16T22:04:48;100141.88;;;23.65;62.12
31717;BME280;18301;51.076;17.046;2023-07-16T22:09:49;100145.25;;;23.67;62.35
31717;BME280;18301;51.076;17.046;2023-07-16T22:14:51;100162.06;;;23.73;62.02
31717;BME280;18301;51.076;17.046;2023-07-16T22:19:52;100166.75;;;23.79;62.04
31717;BME280;18301;51.076;17.046;2023-07-16T22:24:54;100171.88;;;23.82;62.15
31717;BME280;18301;51.076;17.046;2023-07-16T22:29:55;100171.03;;;23.81;61.90
31717;BME280;18301;51.076;17.046;2023-07-16T22:34:57;100181.19;;;23.81;62.48
31717;BME280;18301;51.076;17.046;2023-07-16T22:39:58;100183.53;;;23.84;62.47
31717;BME280;18301;51.076;17.046;2023-07-16T22:45:00;100178.22;;;23.82;62.45
31717;BME280;18301;51.076;17.046;2023-07-16T22:50:01;100178.22;;;23.82;62.48
31717;BME280;18301;51.076;17.046;2023-07-16T22:55:03;100177.13;;;23.77;62.65
31717;BME280;18301;51.076;17.046;2023-07-16T23:00:06;100179.88;;;23.77;62.51
31717;BME280;18301;51.076;17.046;2023-07-16T23:05:10;100181.78;;;23.76;62.30
31717;BME280;18301;51.076;17.046;2023-07-16T23:10:14;100166.94;;;23.71;61.87
31717;BME280;18301;51.076;17.046;2023-07-16T23:15:17;100164.81;;;23.73;61.00
31717;BME280;18301;51.076;17.046;2023-07-16T23:20:19;100175.88;;;23.79;60.84
31717;BME280;18301;51.076;17.046;2023-07-16T23:25:21;100177.53;;;23.74;60.32
31717;BME280;18301;51.076;17.046;2023-07-16T23:30:22;100186.47;;;23.76;60.49
31717;BME280;18301;51.076;17.046;2023-07-16T23:35:24;100173.88;;;23.66;60.60
31717;BME280;18301;51.076;17.046;2023-07-16T23:40:26;100171.53;;;23.63;60.58
31717;BME280;18301;51.076;17.046;2023-07-16T23:45:27;100165.84;;;23.65;60.80
31717;BME280;18301;51.076;17.046;2023-07-16T23:50:29;100158.00;;;23.69;60.75
31717;BME280;18301;51.076;17.046;2023-07-16T23:55:31;100167.41;;;23.74;60.47
